sensor_id;sensor_type;location;lat;lon;timestamp;temperature;humidity
5881;DHT22;2966;52.598;10.928;2022-11-15T00:00:28;5.70;99.90
5881;DHT22;2966;52.598;10.928;2022-11-15T00:02:55;5.70;99.90
5881;DHT22;2966;52.598;10.928;2022-11-15T00:05:22;5.70;99.90
5881;DHT22;2966;52.598;10.928;2022-11-15T00:07:50;5.80;99.90
5881;DHT22;2966;52.598;10.928;2022-11-15T00:10:17;5.80;99.90
5881;DHT22;2966;52.598;10.928;2022-11-15T00:12:44;5.80;99.90
5881;DHT22;2966;52.598;10.928;2022-11-15T00:15:11;5.90;99.90
5881;DHT22;2966;52.598;10.928;2022-11-15T00:17:41;5.90;99.90
5881;DHT22;2966;52.598;10.928;2022-11-15T00:20:09;5.90;99.90
5881;DHT22;2966;52.598;10.928;2022-11-15T00:22:37;6.00;99.90
5881;DHT22;2966;52.598;10.928;2022-11-15T00:25:04;5.90;99.90
5881;DHT22;2966;52.598;10.928;2022-11-15T00:27:31;6.00;99.90
5881;DHT22;2966;52.598;10.928;2022-11-15T00:29:58;6.00;99.90
5881;DHT22;2966;52.598;10.928;2022-11-15T00:32:25;5.90;99.90
5881;DHT22;2966;52.598;10.928;2022-11-15T00:34:53;5.90;99.90
5881;DHT22;2966;52.598;10.928;2022-11-15T00:37:20;5.90;99.90
5881;DHT22;2966;52.598;10.928;2022-11-15T00:39:47;5.90;99.90
5881;DHT22;2966;52.598;10.928;2022-11-15T00:42:14;5.90;99.90
5881;DHT22;2966;52.598;10.928;2022-11-15T00:44:41;5.90;99.90
5881;DHT22;2966;52.598;10.928;2022-11-15T00:47:08;5.90;99.90
5881;DHT22;2966;52.598;10.928;2022-11-15T00:49:35;5.90;99.90
5881;DHT22;2966;52.598;10.928;2022-11-15T00:52:03;5.90;99.90
5881;DHT22;2966;52.598;10.928;2022-11-15T00:54:30;5.90;99.90
5881;DHT22;2966;52.598;10.928;2022-11-15T00:56:57;5.90;99.90
5881;DHT22;2966;52.598;10.928;2022-11-15T00:59:24;5.90;99.90
5881;DHT22;2966;52.598;10.928;2022-11-15T01:01:51;5.90;99.90
5881;DHT22;2966;52.598;10.928;2022-11-15T01:04:17;5.80;99.90
5881;DHT22;2966;52.598;10.928;2022-11-15T01:06:44;5.80;99.90
5881;DHT22;2966;52.598;10.928;2022-11-15T01:09:13;5.80;99.90
5881;DHT22;2966;52.598;10.928;2022-11-15T01:11:40;5.80;99.90
5881;DHT22;2966;52.598;10.928;2022-11-15T01:14:07;5.80;99.90
5881;DHT22;2966;52.598;10.928;2022-11-15T01:16:34;5.70;99.90
5881;DHT22;2966;52.598;10.928;2022-11-15T01:19:00;5.70;99.90
5881;DHT22;2966;52.598;10.928;2022-11-15T01:21:30;5.70;99.90
5881;DHT22;2966;52.598;10.928;2022-11-15T01:23:58;5.70;99.90
5881;DHT22;2966;52.598;10.928;2022-11-15T01:26:26;5.70;99.90
5881;DHT22;2966;52.598;10.928;2022-11-15T01:28:53;5.70;99.90
5881;DHT22;2966;52.598;10.928;2022-11-15T01:31:21;5.70;99.90
5881;DHT22;2966;52.598;10.928;2022-11-15T01:33:48;5.60;99.90
5881;DHT22;2966;52.598;10.928;2022-11-15T01:36:17;5.60;99.90
5881;DHT22;2966;52.598;10.928;2022-11-15T01:38:47;5.60;99.90
5881;DHT22;2966;52.598;10.928;2022-11-15T01:41:19;5.60;99.90
5881;DHT22;2966;52.598;10.928;2022-11-15T01:43:51;5.50;99.90
5881;DHT22;2966;52.598;10.928;2022-11-15T01:46:25;5.60;99.90
5881;DHT22;2966;52.598;10.928;2022-11-15T01:48:55;5.50;99.90
5881;DHT22;2966;52.598;10.928;2022-11-15T01:51:26;5.50;99.90
5881;DHT22;2966;52.598;10.928;2022-11-15T01:53:58;5.50;99.90
5881;DHT22;2966;52.598;10.928;2022-11-15T01:56:29;5.50;99.90
5881;DHT22;2966;52.598;10.928;2022-11-15T01:59:00;5.50;99.90
5881;DHT22;2966;52.598;10.928;2022-11-15T02:01:30;5.50;99.90
5881;DHT22;2966;52.598;10.928;2022-11-15T02:04:02;5.50;99.90
5881;DHT22;2966;52.598;10.928;2022-11-15T02:06:30;5.50;99.90
5881;DHT22;2966;52.598;10.928;2022-11-15T02:08:59;5.40;99.90
5881;DHT22;2966;52.598;10.928;2022-11-15T02:11:26;5.40;99.90
5881;DHT22;2966;52.598;10.928;2022-11-15T02:13:53;5.40;99.90
5881;DHT22;2966;52.598;10.928;2022-11-15T02:16:34;5.40;99.90
5881;DHT22;2966;52.598;10.928;2022-11-15T02:19:07;5.40;99.90
5881;DHT22;2966;52.598;10.928;2022-11-15T02:21:41;5.30;99.90
5881;DHT22;2966;52.598;10.928;2022-11-15T02:27:34;5.30;99.90
5881;DHT22;2966;52.598;10.928;2022-11-15T02:30:20;5.20;99.90
5881;DHT22;2966;52.598;10.928;2022-11-15T02:32:52;5.20;99.90
5881;DHT22;2966;52.598;10.928;2022-11-15T02:35:28;5.20;99.90
5881;DHT22;2966;52.598;10.928;2022-11-15T02:37:58;5.20;99.90
5881;DHT22;2966;52.598;10.928;2022-11-15T02:40:37;5.20;99.90
5881;DHT22;2966;52.598;10.928;2022-11-15T02:43:09;5.20;99.90
5881;DHT22;2966;52.598;10.928;2022-11-15T02:46:01;5.20;99.90
5881;DHT22;2966;52.598;10.928;2022-11-15T02:48:31;5.20;99.90
5881;DHT22;2966;52.598;10.928;2022-11-15T02:50:59;5.20;99.90
5881;DHT22;2966;52.598;10.928;2022-11-15T02:53:27;5.20;99.90
5881;DHT22;2966;52.598;10.928;2022-11-15T02:55:55;5.20;99.90
5881;DHT22;2966;52.598;10.928;2022-11-15T02:58:48;5.10;99.90
5881;DHT22;2966;52.598;10.928;2022-11-15T03:01:23;5.10;99.90
5881;DHT22;2966;52.598;10.928;2022-11-15T03:04:01;5.10;99.90
5881;DHT22;2966;52.598;10.928;2022-11-15T03:06:35;5.10;99.90
5881;DHT22;2966;52.598;10.928;2022-11-15T03:09:08;5.00;99.90
5881;DHT22;2966;52.598;10.928;2022-11-15T03:11:39;5.10;99.90
5881;DHT22;2966;52.598;10.928;2022-11-15T03:14:13;5.00;99.90
5881;DHT22;2966;52.598;10.928;2022-11-15T03:16:50;5.00;99.90
5881;DHT22;2966;52.598;10.928;2022-11-15T03:19:27;5.00;99.90
5881;DHT22;2966;52.598;10.928;2022-11-15T03:21:58;5.00;99.90
5881;DHT22;2966;52.598;10.928;2022-11-15T03:24:29;4.90;99.90
5881;DHT22;2966;52.598;10.928;2022-11-15T03:26:59;5.00;99.90
5881;DHT22;2966;52.598;10.928;2022-11-15T03:29:31;5.00;99.90
5881;DHT22;2966;52.598;10.928;2022-11-15T03:32:02;5.00;99.90
5881;DHT22;2966;52.598;10.928;2022-11-15T03:34:34;4.90;99.90
5881;DHT22;2966;52.598;10.928;2022-11-15T03:37:04;4.90;99.90
5881;DHT22;2966;52.598;10.928;2022-11-15T03:39:32;4.90;99.90
5881;DHT22;2966;52.598;10.928;2022-11-15T03:42:08;4.80;99.90
5881;DHT22;2966;52.598;10.928;2022-11-15T03:44:45;4.80;99.90
5881;DHT22;2966;52.598;10.928;2022-11-15T03:47:18;4.80;99.90
5881;DHT22;2966;52.598;10.928;2022-11-15T03:49:52;4.80;99.90
5881;DHT22;2966;52.598;10.928;2022-11-15T03:52:21;4.70;99.90
5881;DHT22;2966;52.598;10.928;2022-11-15T03:54:50;4.70;99.90
5881;DHT22;2966;52.598;10.928;2022-11-15T03:57:18;4.70;99.90
5881;DHT22;2966;52.598;10.928;2022-11-15T03:59:46;4.70;99.90
5881;DHT22;2966;52.598;10.928;2022-11-15T04:02:14;4.60;99.90
5881;DHT22;2966;52.598;10.928;2022-11-15T04:04:41;4.60;99.90
5881;DHT22;2966;52.598;10.928;2022-11-15T04:07:08;4.60;99.90
5881;DHT22;2966;52.598;10.928;2022-11-15T04:09:35;4.60;99.90
5881;DHT22;2966;52.598;10.928;2022-11-15T04:12:23;4.60;99.90
5881;DHT22;2966;52.598;10.928;2022-11-15T04:14:56;4.60;99.90
5881;DHT22;2966;52.598;10.928;2022-11-15T04:17:38;4.60;99.90
5881;DHT22;2966;52.598;10.928;2022-11-15T04:20:09;4.60;99.90
5881;DHT22;2966;52.598;10.928;2022-11-15T04:22:54;4.60;99.90
5881;DHT22;2966;52.598;10.928;2022-11-15T04:25:40;4.70;99.90
5881;DHT22;2966;52.598;10.928;2022-11-15T04:28:07;4.70;99.90
5881;DHT22;2966;52.598;10.928;2022-11-15T04:30:34;4.60;99.90
5881;DHT22;2966;52.598;10.928;2022-11-15T04:33:02;4.60;99.90
5881;DHT22;2966;52.598;10.928;2022-11-15T04:35:30;4.60;99.90
5881;DHT22;2966;52.598;10.928;2022-11-15T04:37:57;4.50;99.90
5881;DHT22;2966;52.598;10.928;2022-11-15T04:40:23;4.60;99.90
5881;DHT22;2966;52.598;10.928;2022-11-15T04:42:50;4.60;99.90
5881;DHT22;2966;52.598;10.928;2022-11-15T04:45:17;4.60;99.90
5881;DHT22;2966;52.598;10.928;2022-11-15T04:47:45;4.60;99.90
5881;DHT22;2966;52.598;10.928;2022-11-15T04:50:13;4.60;99.90
5881;DHT22;2966;52.598;10.928;2022-11-15T04:52:41;4.70;99.90
5881;DHT22;2966;52.598;10.928;2022-11-15T04:55:09;4.60;99.90
5881;DHT22;2966;52.598;10.928;2022-11-15T04:57:36;4.70;99.90
5881;DHT22;2966;52.598;10.928;2022-11-15T05:00:06;4.60;99.90
5881;DHT22;2966;52.598;10.928;2022-11-15T05:02:33;4.60;99.90
5881;DHT22;2966;52.598;10.928;2022-11-15T05:05:15;4.60;99.90
5881;DHT22;2966;52.598;10.928;2022-11-15T05:07:42;4.60;99.90
5881;DHT22;2966;52.598;10.928;2022-11-15T05:10:09;4.60;99.90
5881;DHT22;2966;52.598;10.928;2022-11-15T05:12:36;4.60;99.90
5881;DHT22;2966;52.598;10.928;2022-11-15T05:15:04;4.50;99.90
5881;DHT22;2966;52.598;10.928;2022-11-15T05:17:30;4.50;99.90
5881;DHT22;2966;52.598;10.928;2022-11-15T05:19:57;4.50;99.90
5881;DHT22;2966;52.598;10.928;2022-11-15T05:22:26;4.50;99.90
5881;DHT22;2966;52.598;10.928;2022-11-15T05:24:53;4.50;99.90
5881;DHT22;2966;52.598;10.928;2022-11-15T05:27:20;4.50;99.90
5881;DHT22;2966;52.598;10.928;2022-11-15T05:29:47;4.50;99.90
5881;DHT22;2966;52.598;10.928;2022-11-15T05:32:13;4.50;99.90
5881;DHT22;2966;52.598;10.928;2022-11-15T05:34:41;4.50;99.90
5881;DHT22;2966;52.598;10.928;2022-11-15T05:37:07;4.40;99.90
5881;DHT22;2966;52.598;10.928;2022-11-15T05:39:36;4.40;99.90
5881;DHT22;2966;52.598;10.928;2022-11-15T05:42:09;4.40;99.90
5881;DHT22;2966;52.598;10.928;2022-11-15T05:44:38;4.30;99.90
5881;DHT22;2966;52.598;10.928;2022-11-15T05:47:09;4.30;99.90
5881;DHT22;2966;52.598;10.928;2022-11-15T05:49:38;4.20;99.90
5881;DHT22;2966;52.598;10.928;2022-11-15T05:52:07;4.20;99.90
5881;DHT22;2966;52.598;10.928;2022-11-15T05:54:37;4.20;99.90
5881;DHT22;2966;52.598;10.928;2022-11-15T05:57:04;4.20;99.90
5881;DHT22;2966;52.598;10.928;2022-11-15T05:59:32;4.20;99.90
5881;DHT22;2966;52.598;10.928;2022-11-15T06:02:00;4.10;99.90
5881;DHT22;2966;52.598;10.928;2022-11-15T06:04:27;4.10;99.90
5881;DHT22;2966;52.598;10.928;2022-11-15T06:06:54;4.10;99.90
5881;DHT22;2966;52.598;10.928;2022-11-15T06:09:21;4.00;99.90
5881;DHT22;2966;52.598;10.928;2022-11-15T06:11:57;4.00;99.90
5881;DHT22;2966;52.598;10.928;2022-11-15T06:14:26;4.00;99.90
5881;DHT22;2966;52.598;10.928;2022-11-15T06:16:53;4.00;99.90
5881;DHT22;2966;52.598;10.928;2022-11-15T06:19:23;4.00;99.90
5881;DHT22;2966;52.598;10.928;2022-11-15T06:21:50;4.00;99.90
5881;DHT22;2966;52.598;10.928;2022-11-15T06:24:17;4.00;99.90
5881;DHT22;2966;52.598;10.928;2022-11-15T06:26:44;4.10;99.90
5881;DHT22;2966;52.598;10.928;2022-11-15T06:29:18;4.00;99.90
5881;DHT22;2966;52.598;10.928;2022-11-15T06:31:45;4.00;99.90
5881;DHT22;2966;52.598;10.928;2022-11-15T06:34:12;4.00;99.90
5881;DHT22;2966;52.598;10.928;2022-11-15T06:36:39;4.00;99.90
5881;DHT22;2966;52.598;10.928;2022-11-15T06:39:06;4.00;99.90
5881;DHT22;2966;52.598;10.928;2022-11-15T06:41:34;4.00;99.90
5881;DHT22;2966;52.598;10.928;2022-11-15T06:44:01;4.00;99.90
5881;DHT22;2966;52.598;10.928;2022-11-15T06:46:29;4.10;99.90
5881;DHT22;2966;52.598;10.928;2022-11-15T06:48:56;4.10;99.90
5881;DHT22;2966;52.598;10.928;2022-11-15T06:51:23;4.10;99.90
5881;DHT22;2966;52.598;10.928;2022-11-15T06:53:50;4.10;99.90
5881;DHT22;2966;52.598;10.928;2022-11-15T06:56:17;4.10;99.90
5881;DHT22;2966;52.598;10.928;2022-11-15T06:58:43;4.10;99.90
5881;DHT22;2966;52.598;10.928;2022-11-15T07:01:12;4.20;99.90
5881;DHT22;2966;52.598;10.928;2022-11-15T07:03:41;4.20;99.90
5881;DHT22;2966;52.598;10.928;2022-11-15T07:06:09;4.30;99.90
5881;DHT22;2966;52.598;10.928;2022-11-15T07:08:36;4.30;99.90
5881;DHT22;2966;52.598;10.928;2022-11-15T07:11:05;4.30;99.90
5881;DHT22;2966;52.598;10.928;2022-11-15T07:13:33;4.30;99.90
5881;DHT22;2966;52.598;10.928;2022-11-15T07:16:02;4.40;99.90
5881;DHT22;2966;52.598;10.928;2022-11-15T07:18:29;4.50;99.90
5881;DHT22;2966;52.598;10.928;2022-11-15T07:21:00;4.50;99.90
5881;DHT22;2966;52.598;10.928;2022-11-15T07:23:27;4.60;99.90
5881;DHT22;2966;52.598;10.928;2022-11-15T07:25:56;4.60;99.90
5881;DHT22;2966;52.598;10.928;2022-11-15T07:28:23;4.70;99.90
5881;DHT22;2966;52.598;10.928;2022-11-15T07:30:50;4.80;99.90
5881;DHT22;2966;52.598;10.928;2022-11-15T07:33:17;4.80;99.90
5881;DHT22;2966;52.598;10.928;2022-11-15T07:35:43;4.80;99.90
5881;DHT22;2966;52.598;10.928;2022-11-15T07:38:13;4.90;99.90
5881;DHT22;2966;52.598;10.928;2022-11-15T07:40:40;4.90;99.90
5881;DHT22;2966;52.598;10.928;2022-11-15T07:43:08;5.00;99.90
5881;DHT22;2966;52.598;10.928;2022-11-15T07:45:40;5.10;99.90
5881;DHT22;2966;52.598;10.928;2022-11-15T07:48:07;5.10;99.90
5881;DHT22;2966;52.598;10.928;2022-11-15T07:50:34;5.20;99.90
5881;DHT22;2966;52.598;10.928;2022-11-15T07:53:01;5.20;99.90
5881;DHT22;2966;52.598;10.928;2022-11-15T07:55:29;5.30;99.90
5881;DHT22;2966;52.598;10.928;2022-11-15T07:58:00;5.40;99.90
5881;DHT22;2966;52.598;10.928;2022-11-15T08:00:27;5.40;99.90
5881;DHT22;2966;52.598;10.928;2022-11-15T08:03:01;5.50;99.90
5881;DHT22;2966;52.598;10.928;2022-11-15T08:05:28;5.60;99.90
5881;DHT22;2966;52.598;10.928;2022-11-15T08:07:55;5.70;99.90
5881;DHT22;2966;52.598;10.928;2022-11-15T08:10:22;5.80;99.90
5881;DHT22;2966;52.598;10.928;2022-11-15T08:12:58;5.90;99.90
5881;DHT22;2966;52.598;10.928;2022-11-15T08:15:25;6.00;99.90
5881;DHT22;2966;52.598;10.928;2022-11-15T08:17:56;6.10;99.90
5881;DHT22;2966;52.598;10.928;2022-11-15T08:20:26;6.10;99.90
5881;DHT22;2966;52.598;10.928;2022-11-15T08:22:55;6.20;99.90
5881;DHT22;2966;52.598;10.928;2022-11-15T08:25:22;6.40;99.90
5881;DHT22;2966;52.598;10.928;2022-11-15T08:27:52;6.50;99.90
5881;DHT22;2966;52.598;10.928;2022-11-15T08:30:20;6.60;99.90
5881;DHT22;2966;52.598;10.928;2022-11-15T08:32:47;6.70;99.90
5881;DHT22;2966;52.598;10.928;2022-11-15T08:35:15;6.80;99.90
5881;DHT22;2966;52.598;10.928;2022-11-15T08:37:42;6.90;99.90
5881;DHT22;2966;52.598;10.928;2022-11-15T08:40:09;7.00;99.90
5881;DHT22;2966;52.598;10.928;2022-11-15T08:42:37;7.10;99.90
5881;DHT22;2966;52.598;10.928;2022-11-15T08:45:05;7.20;99.90
5881;DHT22;2966;52.598;10.928;2022-11-15T08:47:33;7.40;99.90
5881;DHT22;2966;52.598;10.928;2022-11-15T08:50:01;7.50;99.90
5881;DHT22;2966;52.598;10.928;2022-11-15T08:52:27;7.60;99.90
5881;DHT22;2966;52.598;10.928;2022-11-15T08:54:54;7.80;99.90
5881;DHT22;2966;52.598;10.928;2022-11-15T08:57:21;7.90;99.90
5881;DHT22;2966;52.598;10.928;2022-11-15T08:59:48;8.10;99.90
5881;DHT22;2966;52.598;10.928;2022-11-15T09:02:15;8.20;99.90
5881;DHT22;2966;52.598;10.928;2022-11-15T09:04:44;8.30;99.90
5881;DHT22;2966;52.598;10.928;2022-11-15T09:07:11;8.30;99.90
5881;DHT22;2966;52.598;10.928;2022-11-15T09:09:41;8.50;99.90
5881;DHT22;2966;52.598;10.928;2022-11-15T09:12:08;8.60;99.90
5881;DHT22;2966;52.598;10.928;2022-11-15T09:14:35;8.50;99.90
5881;DHT22;2966;52.598;10.928;2022-11-15T09:17:06;8.60;99.90
5881;DHT22;2966;52.598;10.928;2022-11-15T09:19:33;8.70;99.90
5881;DHT22;2966;52.598;10.928;2022-11-15T09:22:05;8.80;99.90
5881;DHT22;2966;52.598;10.928;2022-11-15T09:24:32;8.90;99.90
5881;DHT22;2966;52.598;10.928;2022-11-15T09:26:59;8.90;99.90
5881;DHT22;2966;52.598;10.928;2022-11-15T09:29:26;9.00;99.90
5881;DHT22;2966;52.598;10.928;2022-11-15T09:31:52;9.10;99.90
5881;DHT22;2966;52.598;10.928;2022-11-15T09:34:19;9.10;99.90
5881;DHT22;2966;52.598;10.928;2022-11-15T09:36:46;9.20;99.90
5881;DHT22;2966;52.598;10.928;2022-11-15T09:39:17;9.20;99.90
5881;DHT22;2966;52.598;10.928;2022-11-15T09:42:18;9.30;99.90
5881;DHT22;2966;52.598;10.928;2022-11-15T09:45:04;9.40;99.90
5881;DHT22;2966;52.598;10.928;2022-11-15T09:50:30;9.50;99.90
5881;DHT22;2966;52.598;10.928;2022-11-15T09:52:58;9.60;99.90
5881;DHT22;2966;52.598;10.928;2022-11-15T09:55:35;9.70;99.90
5881;DHT22;2966;52.598;10.928;2022-11-15T09:58:15;9.70;99.90
5881;DHT22;2966;52.598;10.928;2022-11-15T10:00:46;9.80;99.90
5881;DHT22;2966;52.598;10.928;2022-11-15T10:03:23;9.80;99.90
5881;DHT22;2966;52.598;10.928;2022-11-15T10:05:52;9.80;99.90
5881;DHT22;2966;52.598;10.928;2022-11-15T10:08:31;9.70;99.90
5881;DHT22;2966;52.598;10.928;2022-11-15T10:11:03;9.70;99.90
5881;DHT22;2966;52.598;10.928;2022-11-15T10:13:33;9.70;99.90
5881;DHT22;2966;52.598;10.928;2022-11-15T10:16:04;9.80;99.90
5881;DHT22;2966;52.598;10.928;2022-11-15T10:18:35;9.80;99.90
5881;DHT22;2966;52.598;10.928;2022-11-15T10:21:15;9.90;99.90
5881;DHT22;2966;52.598;10.928;2022-11-15T10:23:42;9.90;99.90
5881;DHT22;2966;52.598;10.928;2022-11-15T10:26:13;10.00;99.90
5881;DHT22;2966;52.598;10.928;2022-11-15T10:28:41;10.00;99.90
5881;DHT22;2966;52.598;10.928;2022-11-15T10:31:22;10.10;99.90
5881;DHT22;2966;52.598;10.928;2022-11-15T10:33:51;10.10;99.90
5881;DHT22;2966;52.598;10.928;2022-11-15T10:36:24;10.10;99.90
5881;DHT22;2966;52.598;10.928;2022-11-15T10:38:57;10.10;99.90
5881;DHT22;2966;52.598;10.928;2022-11-15T10:41:36;10.20;99.90
5881;DHT22;2966;52.598;10.928;2022-11-15T10:44:24;10.20;99.90
5881;DHT22;2966;52.598;10.928;2022-11-15T10:50:05;10.30;99.90
5881;DHT22;2966;52.598;10.928;2022-11-15T10:52:36;10.40;99.90
5881;DHT22;2966;52.598;10.928;2022-11-15T10:55:25;10.60;99.90
5881;DHT22;2966;52.598;10.928;2022-11-15T10:57:55;10.60;99.90
5881;DHT22;2966;52.598;10.928;2022-11-15T11:00:30;10.70;99.90
5881;DHT22;2966;52.598;10.928;2022-11-15T11:02:59;10.70;99.90
5881;DHT22;2966;52.598;10.928;2022-11-15T11:05:29;10.80;99.90
5881;DHT22;2966;52.598;10.928;2022-11-15T11:07:58;10.90;99.90
5881;DHT22;2966;52.598;10.928;2022-11-15T11:10:26;11.00;99.90
5881;DHT22;2966;52.598;10.928;2022-11-15T11:12:55;11.00;99.90
5881;DHT22;2966;52.598;10.928;2022-11-15T11:15:25;11.10;99.90
5881;DHT22;2966;52.598;10.928;2022-11-15T11:18:00;11.10;99.90
5881;DHT22;2966;52.598;10.928;2022-11-15T11:20:32;11.10;99.90
5881;DHT22;2966;52.598;10.928;2022-11-15T11:23:10;11.20;99.90
5881;DHT22;2966;52.598;10.928;2022-11-15T11:25:49;11.20;99.90
5881;DHT22;2966;52.598;10.928;2022-11-15T11:28:33;11.30;99.90
5881;DHT22;2966;52.598;10.928;2022-11-15T11:31:15;11.40;99.90
5881;DHT22;2966;52.598;10.928;2022-11-15T11:33:50;11.50;99.90
5881;DHT22;2966;52.598;10.928;2022-11-15T11:36:31;11.50;99.90
5881;DHT22;2966;52.598;10.928;2022-11-15T11:39:14;11.50;99.90
5881;DHT22;2966;52.598;10.928;2022-11-15T11:41:51;11.60;99.90
5881;DHT22;2966;52.598;10.928;2022-11-15T11:44:34;11.70;99.90
5881;DHT22;2966;52.598;10.928;2022-11-15T11:47:09;11.70;99.90
5881;DHT22;2966;52.598;10.928;2022-11-15T11:49:42;11.80;99.90
5881;DHT22;2966;52.598;10.928;2022-11-15T11:52:14;11.90;99.90
5881;DHT22;2966;52.598;10.928;2022-11-15T11:54:55;12.00;99.90
5881;DHT22;2966;52.598;10.928;2022-11-15T11:57:34;12.00;99.90
5881;DHT22;2966;52.598;10.928;2022-11-15T12:00:16;12.10;99.90
5881;DHT22;2966;52.598;10.928;2022-11-15T12:02:48;12.20;99.90
5881;DHT22;2966;52.598;10.928;2022-11-15T12:05:22;12.30;99.90
5881;DHT22;2966;52.598;10.928;2022-11-15T12:07:56;12.30;99.90
5881;DHT22;2966;52.598;10.928;2022-11-15T12:10:29;12.30;99.90
5881;DHT22;2966;52.598;10.928;2022-11-15T12:13:02;12.40;99.90
5881;DHT22;2966;52.598;10.928;2022-11-15T12:15:35;12.40;99.90
5881;DHT22;2966;52.598;10.928;2022-11-15T12:18:03;12.50;99.90
5881;DHT22;2966;52.598;10.928;2022-11-15T12:20:34;12.50;99.90
5881;DHT22;2966;52.598;10.928;2022-11-15T12:23:06;12.70;99.90
5881;DHT22;2966;52.598;10.928;2022-11-15T12:25:43;12.70;99.90
5881;DHT22;2966;52.598;10.928;2022-11-15T12:28:15;12.70;99.90
5881;DHT22;2966;52.598;10.928;2022-11-15T12:30:49;12.70;99.90
5881;DHT22;2966;52.598;10.928;2022-11-15T12:33:35;12.80;99.90
5881;DHT22;2966;52.598;10.928;2022-11-15T12:36:05;12.80;99.90
5881;DHT22;2966;52.598;10.928;2022-11-15T12:38:53;12.80;99.90
5881;DHT22;2966;52.598;10.928;2022-11-15T12:41:21;12.70;99.90
5881;DHT22;2966;52.598;10.928;2022-11-15T12:43:49;12.70;99.90
5881;DHT22;2966;52.598;10.928;2022-11-15T12:47:00;12.70;99.90
5881;DHT22;2966;52.598;10.928;2022-11-15T12:49:44;12.70;99.90
5881;DHT22;2966;52.598;10.928;2022-11-15T12:52:12;12.60;99.90
5881;DHT22;2966;52.598;10.928;2022-11-15T12:55:02;12.60;99.90
5881;DHT22;2966;52.598;10.928;2022-11-15T12:57:37;12.60;99.90
5881;DHT22;2966;52.598;10.928;2022-11-15T13:03:34;12.50;99.90
5881;DHT22;2966;52.598;10.928;2022-11-15T13:08:51;12.50;99.90
5881;DHT22;2966;52.598;10.928;2022-11-15T13:11:49;12.50;99.90
5881;DHT22;2966;52.598;10.928;2022-11-15T13:14:46;12.60;99.90
5881;DHT22;2966;52.598;10.928;2022-11-15T13:20:26;12.60;99.90
5881;DHT22;2966;52.598;10.928;2022-11-15T13:23:00;12.50;99.90
5881;DHT22;2966;52.598;10.928;2022-11-15T13:25:45;12.50;99.90
5881;DHT22;2966;52.598;10.928;2022-11-15T13:28:21;12.50;99.90
5881;DHT22;2966;52.598;10.928;2022-11-15T13:30:50;12.50;99.90
5881;DHT22;2966;52.598;10.928;2022-11-15T13:33:23;12.40;99.90
5881;DHT22;2966;52.598;10.928;2022-11-15T13:35:54;12.40;99.90
5881;DHT22;2966;52.598;10.928;2022-11-15T13:38:28;12.40;99.90
5881;DHT22;2966;52.598;10.928;2022-11-15T13:40:56;12.30;99.90
5881;DHT22;2966;52.598;10.928;2022-11-15T13:43:29;12.30;99.90
5881;DHT22;2966;52.598;10.928;2022-11-15T13:46:05;12.20;99.90
5881;DHT22;2966;52.598;10.928;2022-11-15T13:48:32;12.20;99.90
5881;DHT22;2966;52.598;10.928;2022-11-15T13:51:03;12.20;99.90
5881;DHT22;2966;52.598;10.928;2022-11-15T13:53:31;12.10;99.90
5881;DHT22;2966;52.598;10.928;2022-11-15T13:56:01;12.10;99.90
5881;DHT22;2966;52.598;10.928;2022-11-15T13:58:30;12.10;99.90
5881;DHT22;2966;52.598;10.928;2022-11-15T14:01:00;12.10;99.90
5881;DHT22;2966;52.598;10.928;2022-11-15T14:03:29;12.10;99.90
5881;DHT22;2966;52.598;10.928;2022-11-15T14:06:06;12.00;99.90
5881;DHT22;2966;52.598;10.928;2022-11-15T14:08:36;11.90;99.90
5881;DHT22;2966;52.598;10.928;2022-11-15T14:11:09;11.90;99.90
5881;DHT22;2966;52.598;10.928;2022-11-15T14:13:38;11.80;99.90
5881;DHT22;2966;52.598;10.928;2022-11-15T14:16:15;11.70;99.90
5881;DHT22;2966;52.598;10.928;2022-11-15T14:18:45;11.70;99.90
5881;DHT22;2966;52.598;10.928;2022-11-15T14:21:14;11.60;99.90
5881;DHT22;2966;52.598;10.928;2022-11-15T14:23:41;11.50;99.90
5881;DHT22;2966;52.598;10.928;2022-11-15T14:26:26;11.40;99.90
5881;DHT22;2966;52.598;10.928;2022-11-15T14:28:53;11.40;99.90
5881;DHT22;2966;52.598;10.928;2022-11-15T14:31:21;11.30;99.90
5881;DHT22;2966;52.598;10.928;2022-11-15T14:33:48;11.20;99.90
5881;DHT22;2966;52.598;10.928;2022-11-15T14:36:20;11.20;99.90
5881;DHT22;2966;52.598;10.928;2022-11-15T14:38:47;11.20;99.90
5881;DHT22;2966;52.598;10.928;2022-11-15T14:41:19;11.20;99.90
5881;DHT22;2966;52.598;10.928;2022-11-15T14:43:47;11.20;99.90
5881;DHT22;2966;52.598;10.928;2022-11-15T14:46:14;11.20;99.90
5881;DHT22;2966;52.598;10.928;2022-11-15T14:48:41;11.20;99.90
5881;DHT22;2966;52.598;10.928;2022-11-15T14:51:12;11.10;99.90
5881;DHT22;2966;52.598;10.928;2022-11-15T14:53:41;11.20;99.90
5881;DHT22;2966;52.598;10.928;2022-11-15T14:56:08;11.10;99.90
5881;DHT22;2966;52.598;10.928;2022-11-15T14:58:35;11.10;99.90
5881;DHT22;2966;52.598;10.928;2022-11-15T15:01:05;11.10;99.90
5881;DHT22;2966;52.598;10.928;2022-11-15T15:03:36;11.20;99.90
5881;DHT22;2966;52.598;10.928;2022-11-15T15:06:03;11.20;99.90
5881;DHT22;2966;52.598;10.928;2022-11-15T15:08:30;11.10;99.90
5881;DHT22;2966;52.598;10.928;2022-11-15T15:10:58;11.10;99.90
5881;DHT22;2966;52.598;10.928;2022-11-15T15:13:25;11.10;99.90
5881;DHT22;2966;52.598;10.928;2022-11-15T15:15:55;11.00;99.90
5881;DHT22;2966;52.598;10.928;2022-11-15T15:18:22;11.00;99.90
5881;DHT22;2966;52.598;10.928;2022-11-15T15:20:55;10.90;99.90
5881;DHT22;2966;52.598;10.928;2022-11-15T15:23:22;10.90;99.90
5881;DHT22;2966;52.598;10.928;2022-11-15T15:25:51;10.80;99.90
5881;DHT22;2966;52.598;10.928;2022-11-15T15:28:20;10.80;99.90
5881;DHT22;2966;52.598;10.928;2022-11-15T15:30:46;10.70;99.90
5881;DHT22;2966;52.598;10.928;2022-11-15T15:33:14;10.70;99.90
5881;DHT22;2966;52.598;10.928;2022-11-15T15:35:43;10.70;99.90
5881;DHT22;2966;52.598;10.928;2022-11-15T15:38:11;10.60;99.90
5881;DHT22;2966;52.598;10.928;2022-11-15T15:40:48;10.60;99.90
5881;DHT22;2966;52.598;10.928;2022-11-15T15:43:15;10.60;99.90
5881;DHT22;2966;52.598;10.928;2022-11-15T15:45:44;10.60;99.90
5881;DHT22;2966;52.598;10.928;2022-11-15T15:48:12;10.70;99.90
5881;DHT22;2966;52.598;10.928;2022-11-15T15:50:40;10.70;99.90
5881;DHT22;2966;52.598;10.928;2022-11-15T15:53:08;10.70;99.90
5881;DHT22;2966;52.598;10.928;2022-11-15T15:55:36;10.70;99.90
5881;DHT22;2966;52.598;10.928;2022-11-15T15:58:04;10.70;99.90
5881;DHT22;2966;52.598;10.928;2022-11-15T16:00:32;10.70;99.90
5881;DHT22;2966;52.598;10.928;2022-11-15T16:03:00;10.70;99.90
5881;DHT22;2966;52.598;10.928;2022-11-15T16:05:27;10.70;99.90
5881;DHT22;2966;52.598;10.928;2022-11-15T16:07:54;10.70;99.90
5881;DHT22;2966;52.598;10.928;2022-11-15T16:10:23;10.70;99.90
5881;DHT22;2966;52.598;10.928;2022-11-15T16:12:51;10.70;99.90
5881;DHT22;2966;52.598;10.928;2022-11-15T16:15:20;10.70;99.90
5881;DHT22;2966;52.598;10.928;2022-11-15T16:17:49;10.70;99.90
5881;DHT22;2966;52.598;10.928;2022-11-15T16:20:29;10.70;99.90
5881;DHT22;2966;52.598;10.928;2022-11-15T16:22:57;10.70;99.90
5881;DHT22;2966;52.598;10.928;2022-11-15T16:25:24;10.70;99.90
5881;DHT22;2966;52.598;10.928;2022-11-15T16:27:51;10.60;99.90
5881;DHT22;2966;52.598;10.928;2022-11-15T16:30:22;10.60;99.90
5881;DHT22;2966;52.598;10.928;2022-11-15T16:32:49;10.60;99.90
5881;DHT22;2966;52.598;10.928;2022-11-15T16:35:16;10.60;99.90